createdAt,value
2022-08-03T00:01:08.499Z,5.43
2022-08-03T00:03:58.190Z,5.43
2022-08-03T00:06:46.568Z,4.00
2022-08-03T00:09:35.570Z,4.53
2022-08-03T00:12:24.484Z,4.83
2022-08-03T00:15:16.705Z,3.93
2022-08-03T00:18:05.429Z,4.60
2022-08-03T00:20:55.003Z,4.07
2022-08-03T00:23:52.096Z,4.20
2022-08-03T00:26:41.677Z,3.90
2022-08-03T00:29:29.884Z,4.77
2022-08-03T00:32:18.144Z,4.43
2022-08-03T00:35:18.033Z,4.20
2022-08-03T00:38:22.089Z,4.80
2022-08-03T00:41:10.214Z,4.03
2022-08-03T00:43:58.484Z,4.57
2022-08-03T00:46:46.516Z,4.57
2022-08-03T00:49:35.063Z,4.00
2022-08-03T00:52:23.382Z,4.60
2022-08-03T00:55:13.552Z,6.67
2022-08-03T00:58:06.567Z,3.90
2022-08-03T01:00:55.222Z,3.90
2022-08-03T01:03:43.605Z,4.17
2022-08-03T01:06:41.173Z,3.83
2022-08-03T01:09:47.376Z,3.97
2022-08-03T01:12:44.993Z,4.13
2022-08-03T01:15:40.599Z,3.73
2022-08-03T01:18:36.296Z,4.30
2022-08-03T01:21:30.106Z,3.97
2022-08-03T01:24:28.394Z,3.90
2022-08-03T01:27:22.951Z,3.93
2022-08-03T01:30:13.890Z,3.93
2022-08-03T01:33:07.104Z,4.20
2022-08-03T01:36:00.725Z,3.53
2022-08-03T01:38:55.314Z,4.00
2022-08-03T01:41:49.127Z,3.87
2022-08-03T01:44:41.744Z,4.43
2022-08-03T01:47:32.857Z,3.33
2022-08-03T01:50:25.129Z,3.30
2022-08-03T01:53:16.594Z,3.90
2022-08-03T01:56:07.753Z,3.77
2022-08-03T01:58:58.269Z,4.10
2022-08-03T02:02:28.840Z,3.87
2022-08-03T02:05:01.478Z,3.60
2022-08-03T02:07:51.232Z,3.60
2022-08-03T02:10:42.538Z,4.17
2022-08-03T02:13:34.314Z,4.10
2022-08-03T02:16:24.911Z,3.77
2022-08-03T02:19:13.386Z,4.13
2022-08-03T02:22:03.927Z,4.00
2022-08-03T02:24:53.082Z,3.70
2022-08-03T02:27:51.843Z,4.00
2022-08-03T02:30:43.992Z,4.13
2022-08-03T02:33:35.733Z,4.50
2022-08-03T02:36:27.499Z,3.50
2022-08-03T02:39:23.973Z,4.00
2022-08-03T02:42:15.614Z,4.00
2022-08-03T02:45:09.027Z,3.93
2022-08-03T02:48:04.905Z,4.40
2022-08-03T02:50:55.853Z,4.00
2022-08-03T02:53:47.121Z,3.93
2022-08-03T02:56:38.488Z,3.97
2022-08-03T02:59:31.194Z,3.93
2022-08-03T03:02:20.965Z,3.50
2022-08-03T03:05:54.518Z,3.73
2022-08-03T03:08:26.127Z,3.73
2022-08-03T03:11:20.180Z,3.77
2022-08-03T03:14:12.501Z,3.10
2022-08-03T03:17:03.099Z,3.77
2022-08-03T03:19:53.275Z,3.90
2022-08-03T03:22:45.270Z,3.80
2022-08-03T03:25:35.186Z,4.20
2022-08-03T03:28:24.742Z,4.17
2022-08-03T03:31:16.758Z,4.20
2022-08-03T03:34:05.619Z,3.87
2022-08-03T03:36:57.969Z,3.80
2022-08-03T03:39:46.810Z,4.30
2022-08-03T03:42:35.450Z,4.30
2022-08-03T03:45:24.804Z,3.63
2022-08-03T03:48:15.179Z,4.20
2022-08-03T03:51:04.178Z,3.93
2022-08-03T03:53:58.905Z,4.10
2022-08-03T03:56:47.783Z,4.50
2022-08-03T03:59:39.215Z,4.90
2022-08-03T04:02:27.628Z,5.00
2022-08-03T04:05:34.597Z,4.87
2022-08-03T04:08:40.565Z,4.50
2022-08-03T04:11:37.088Z,4.30
2022-08-03T04:14:28.661Z,4.03
2022-08-03T04:17:18.254Z,3.63
2022-08-03T04:20:08.174Z,4.57
2022-08-03T04:23:00.928Z,4.30
2022-08-03T04:25:52.679Z,4.70
2022-08-03T04:28:47.143Z,4.13
2022-08-03T04:31:36.863Z,4.07
2022-08-03T04:34:25.297Z,4.40
2022-08-03T04:37:20.061Z,4.50
2022-08-03T04:40:14.578Z,4.33
2022-08-03T04:43:04.482Z,5.10
2022-08-03T04:45:54.417Z,5.17
2022-08-03T04:48:44.837Z,5.20
2022-08-03T04:51:34.833Z,5.47
2022-08-03T04:54:23.049Z,5.17
2022-08-03T04:57:22.231Z,5.57
2022-08-03T05:00:13.458Z,5.20
2022-08-03T05:03:02.132Z,5.03
2022-08-03T05:05:50.916Z,5.60
2022-08-03T05:08:46.439Z,5.27
2022-08-03T05:11:35.236Z,5.50
2022-08-03T05:14:28.310Z,4.90
2022-08-03T05:17:16.717Z,4.80
2022-08-03T05:20:07.490Z,5.53
2022-08-03T05:22:55.701Z,5.23
2022-08-03T05:25:49.919Z,5.00
2022-08-03T05:28:38.517Z,5.10
2022-08-03T05:31:28.427Z,6.07
2022-08-03T05:34:16.819Z,5.20
2022-08-03T05:37:05.343Z,4.90
2022-08-03T05:39:54.199Z,4.80
2022-08-03T05:42:42.344Z,4.40
2022-08-03T05:45:30.705Z,4.10
2022-08-03T05:48:20.330Z,4.17
2022-08-03T05:51:11.964Z,3.30
2022-08-03T05:54:00.414Z,3.87
2022-08-03T05:56:48.906Z,4.37
2022-08-03T05:59:40.013Z,3.60
2022-08-03T06:02:44.476Z,3.83
2022-08-03T06:05:36.941Z,2.83
2022-08-03T06:08:31.564Z,3.90
2022-08-03T06:11:19.892Z,3.03
2022-08-03T06:14:09.747Z,3.50
2022-08-03T06:16:58.201Z,3.10
2022-08-03T06:19:48.982Z,3.07
2022-08-03T06:22:50.496Z,2.20
2022-08-03T06:25:39.825Z,2.73
2022-08-03T06:28:52.850Z,2.47
2022-08-03T06:31:37.221Z,2.60
2022-08-03T06:34:33.268Z,2.80
2022-08-03T06:37:24.640Z,3.10
2022-08-03T06:40:16.907Z,3.63
2022-08-03T06:43:15.139Z,2.77
2022-08-03T06:46:05.579Z,3.10
2022-08-03T06:48:56.726Z,2.80
2022-08-03T06:52:05.451Z,3.80
2022-08-03T06:54:54.752Z,2.00
2022-08-03T06:57:44.661Z,2.40
2022-08-03T07:00:34.822Z,2.60
2022-08-03T07:03:23.341Z,3.03
2022-08-03T07:06:12.873Z,2.30
2022-08-03T07:09:01.198Z,1.60
2022-08-03T07:11:49.903Z,2.73
2022-08-03T07:14:40.182Z,2.00
2022-08-03T07:17:28.439Z,2.80
2022-08-03T07:20:18.268Z,2.23
2022-08-03T07:23:07.216Z,2.13
2022-08-03T07:25:55.478Z,2.33
2022-08-03T07:28:43.773Z,2.37
2022-08-03T07:31:34.452Z,2.10
2022-08-03T07:34:23.215Z,2.80
2022-08-03T07:37:12.607Z,2.60
2022-08-03T07:40:01.760Z,2.57
2022-08-03T07:42:52.115Z,1.87
2022-08-03T07:45:41.816Z,2.33
2022-08-03T07:48:34.870Z,2.83
2022-08-03T07:51:23.597Z,2.00
2022-08-03T07:54:12.018Z,1.87
2022-08-03T07:57:00.955Z,1.93
2022-08-03T08:00:02.022Z,1.97
2022-08-03T08:02:50.736Z,2.33
2022-08-03T08:05:40.219Z,1.70
2022-08-03T08:08:28.503Z,1.47
2022-08-03T08:11:16.902Z,1.83
2022-08-03T08:14:07.549Z,2.23
2022-08-03T08:16:55.907Z,2.20
2022-08-03T08:19:51.232Z,1.93
2022-08-03T08:22:41.457Z,2.07
2022-08-03T08:25:31.688Z,1.83
2022-08-03T08:28:29.133Z,2.30
2022-08-03T08:31:21.465Z,2.43
2022-08-03T08:34:09.763Z,2.07
2022-08-03T08:36:59.197Z,1.93
2022-08-03T08:39:49.160Z,1.70
2022-08-03T08:42:40.347Z,2.33
2022-08-03T08:45:33.383Z,1.73
2022-08-03T08:48:25.605Z,2.30
2022-08-03T08:51:14.449Z,1.60
2022-08-03T08:54:04.305Z,1.63
2022-08-03T08:56:59.337Z,1.80
2022-08-03T08:59:49.199Z,2.17
2022-08-03T09:02:38.969Z,2.27
2022-08-03T09:05:41.548Z,1.80
2022-08-03T09:08:36.114Z,1.70
2022-08-03T09:11:52.417Z,2.17
2022-08-03T09:14:45.385Z,2.23
2022-08-03T09:17:46.395Z,1.83
2022-08-03T09:20:37.988Z,2.20
2022-08-03T09:24:00.669Z,1.90
2022-08-03T09:26:36.550Z,1.77
2022-08-03T09:29:24.791Z,2.30
2022-08-03T09:32:14.918Z,1.67
2022-08-03T09:35:06.287Z,2.20
2022-08-03T09:38:15.026Z,1.67
2022-08-03T09:41:03.310Z,1.50
2022-08-03T09:43:56.942Z,1.70
2022-08-03T09:46:53.010Z,2.03
2022-08-03T09:49:57.705Z,1.63
2022-08-03T09:52:49.912Z,1.87
2022-08-03T09:56:36.416Z,1.60
2022-08-03T09:58:59.632Z,1.57
2022-08-03T10:01:48.113Z,1.70
2022-08-03T10:04:51.009Z,1.70
2022-08-03T10:07:46.907Z,2.50
2022-08-03T10:10:44.278Z,2.00
2022-08-03T10:13:33.174Z,1.70
2022-08-03T10:16:25.444Z,1.40
2022-08-03T10:19:18.516Z,2.07
2022-08-03T10:22:14.098Z,1.90
2022-08-03T10:25:05.559Z,1.80
2022-08-03T10:27:54.559Z,1.83
2022-08-03T10:30:49.256Z,1.67
2022-08-03T10:33:49.793Z,1.90
2022-08-03T10:36:42.940Z,1.50
2022-08-03T10:39:32.773Z,1.43
2022-08-03T10:42:24.245Z,1.60
2022-08-03T10:45:21.023Z,1.80
2022-08-03T10:48:10.133Z,1.80
2022-08-03T10:50:59.012Z,2.30
2022-08-03T10:53:55.285Z,1.80
2022-08-03T10:57:13.612Z,1.40
2022-08-03T11:00:04.660Z,1.50
2022-08-03T11:03:14.719Z,1.83
2022-08-03T11:06:19.095Z,1.90
2022-08-03T11:09:20.444Z,1.97
2022-08-03T11:12:29.973Z,1.50
2022-08-03T11:15:33.885Z,1.50
2022-08-03T11:18:22.900Z,1.53
2022-08-03T11:21:15.280Z,1.70
2022-08-03T11:24:06.631Z,2.10
2022-08-03T11:27:18.896Z,1.50
2022-08-03T11:30:11.444Z,1.43
2022-08-03T11:33:02.043Z,1.40
2022-08-03T11:36:01.114Z,1.67
2022-08-03T11:39:16.748Z,1.30
2022-08-03T11:42:39.007Z,1.70
2022-08-03T11:45:29.240Z,1.73
2022-08-03T11:48:18.334Z,1.50
2022-08-03T11:51:08.224Z,1.40
2022-08-03T11:53:57.893Z,1.50
2022-08-03T11:56:47.933Z,1.70
2022-08-03T11:59:38.770Z,1.13
2022-08-03T12:02:28.585Z,1.73
2022-08-03T12:05:16.863Z,1.83
2022-08-03T12:08:06.871Z,1.60
2022-08-03T12:10:56.869Z,1.70
2022-08-03T12:14:44.706Z,1.60
2022-08-03T12:16:59.188Z,1.90
2022-08-03T12:19:48.708Z,1.73
2022-08-03T12:22:39.094Z,2.00
2022-08-03T12:25:39.616Z,1.83
2022-08-03T12:28:36.990Z,1.67
2022-08-03T12:31:26.834Z,1.50
2022-08-03T12:34:15.596Z,2.00
2022-08-03T12:37:21.992Z,1.77
2022-08-03T12:40:17.787Z,1.80
2022-08-03T12:43:15.373Z,2.57
2022-08-03T12:46:15.236Z,1.87
2022-08-03T12:49:09.752Z,2.40
2022-08-03T12:52:04.073Z,1.20
2022-08-03T12:54:58.765Z,1.70
2022-08-03T12:57:47.021Z,1.43
2022-08-03T13:00:35.459Z,1.47
2022-08-03T13:03:41.952Z,1.53
2022-08-03T13:06:31.171Z,2.10
2022-08-03T13:09:19.619Z,2.23
2022-08-03T13:12:12.047Z,1.50
2022-08-03T13:15:01.460Z,1.70
2022-08-03T13:17:52.227Z,1.50
2022-08-03T13:20:40.630Z,1.50
2022-08-03T13:23:29.081Z,1.67
2022-08-03T13:26:18.444Z,1.80
2022-08-03T13:29:08.026Z,1.93
2022-08-03T13:31:56.309Z,1.77
2022-08-03T13:34:45.777Z,2.00
2022-08-03T13:37:34.601Z,1.80
2022-08-03T13:40:23.577Z,1.53
2022-08-03T13:43:18.294Z,2.80
2022-08-03T13:46:08.309Z,1.90
2022-08-03T13:48:57.566Z,1.43
2022-08-03T13:51:45.926Z,2.23
2022-08-03T13:54:34.127Z,2.10
2022-08-03T13:58:03.455Z,1.63
2022-08-03T14:00:31.077Z,1.53
2022-08-03T14:03:23.662Z,1.50
2022-08-03T14:06:12.608Z,1.60
2022-08-03T14:09:00.986Z,1.40
2022-08-03T14:12:07.649Z,1.50
2022-08-03T14:14:58.395Z,1.80
2022-08-03T14:17:50.249Z,1.60
2022-08-03T14:20:49.040Z,1.30
2022-08-03T14:23:39.693Z,1.90
2022-08-03T14:26:30.711Z,1.70
2022-08-03T14:29:19.373Z,1.60
2022-08-03T14:32:12.909Z,2.00
2022-08-03T14:35:01.903Z,1.77
2022-08-03T14:37:52.462Z,10.77
2022-08-03T14:40:40.820Z,1.57
2022-08-03T14:43:34.174Z,2.17
2022-08-03T14:46:22.913Z,1.87
2022-08-03T14:50:36.014Z,1.50
2022-08-03T14:52:21.508Z,1.80
2022-08-03T14:55:11.572Z,1.50
2022-08-03T14:58:02.653Z,1.63
2022-08-03T15:00:51.885Z,1.67
2022-08-03T15:03:45.016Z,2.27
2022-08-03T15:06:33.526Z,3.70
2022-08-03T15:09:23.987Z,3.43
2022-08-03T15:12:13.841Z,2.13
2022-08-03T15:15:02.371Z,3.33
2022-08-03T15:18:00.030Z,1.90
2022-08-03T15:20:50.924Z,1.90
2022-08-03T15:23:39.415Z,2.00
2022-08-03T15:26:35.353Z,1.93
2022-08-03T15:30:07.595Z,1.93
2022-08-03T15:32:38.013Z,1.80
2022-08-03T15:35:29.093Z,1.40
2022-08-03T15:38:18.983Z,2.00
2022-08-03T15:41:08.726Z,1.73
2022-08-03T15:44:07.475Z,1.40
2022-08-03T15:47:01.130Z,1.70
2022-08-03T15:49:49.793Z,1.77
2022-08-03T15:52:39.198Z,1.77
2022-08-03T15:55:27.826Z,1.60
2022-08-03T15:59:09.726Z,2.17
2022-08-03T16:01:26.915Z,1.63
2022-08-03T16:04:17.149Z,1.93
2022-08-03T16:07:05.514Z,2.07
2022-08-03T16:09:53.789Z,2.00
2022-08-03T16:12:42.043Z,2.03
2022-08-03T16:15:30.461Z,2.00
2022-08-03T16:18:18.874Z,2.30
2022-08-03T16:21:08.564Z,1.87
2022-08-03T16:24:03.800Z,1.80
2022-08-03T16:26:56.882Z,1.57
2022-08-03T16:29:45.164Z,1.90
2022-08-03T16:32:33.472Z,1.90
2022-08-03T16:35:21.835Z,1.77
2022-08-03T16:38:15.344Z,2.00
2022-08-03T16:41:06.985Z,1.93
2022-08-03T16:43:55.283Z,2.27
2022-08-03T16:46:44.830Z,1.90
2022-08-03T16:49:53.690Z,1.90
2022-08-03T16:52:41.056Z,1.83
2022-08-03T16:55:51.673Z,2.10
2022-08-03T16:58:44.329Z,2.00
2022-08-03T17:01:37.851Z,1.80
2022-08-03T17:04:26.839Z,2.17
2022-08-03T17:07:15.730Z,2.10
2022-08-03T17:10:06.765Z,3.30
2022-08-03T17:12:56.793Z,3.60
2022-08-03T17:16:01.326Z,2.73
2022-08-03T17:18:58.300Z,2.67
2022-08-03T17:21:55.312Z,2.20
2022-08-03T17:24:47.779Z,2.17
2022-08-03T17:28:48.490Z,2.00
2022-08-03T17:31:23.087Z,2.07
2022-08-03T17:34:13.776Z,1.93
2022-08-03T17:37:04.894Z,2.40
2022-08-03T17:39:59.078Z,1.97
2022-08-03T17:42:50.476Z,2.13
2022-08-03T17:45:52.047Z,2.23
2022-08-03T17:48:43.405Z,2.27
2022-08-03T17:51:35.465Z,2.57
2022-08-03T17:55:50.555Z,2.37
2022-08-03T17:58:02.678Z,2.50
2022-08-03T18:02:01.798Z,3.10
2022-08-03T18:04:29.824Z,2.77
2022-08-03T18:07:23.520Z,3.37
2022-08-03T18:10:35.027Z,2.77
2022-08-03T18:13:25.937Z,2.20
2022-08-03T18:16:23.153Z,5.23
2022-08-03T18:19:13.744Z,2.67
2022-08-03T18:22:04.769Z,2.47
2022-08-03T18:24:54.773Z,3.23
2022-08-03T18:27:45.942Z,3.67
2022-08-03T18:30:53.087Z,2.50
2022-08-03T18:34:19.400Z,2.60
2022-08-03T18:36:54.801Z,2.70
2022-08-03T18:39:49.939Z,2.50
2022-08-03T18:42:51.055Z,2.60
2022-08-03T18:45:57.781Z,2.50
2022-08-03T18:48:54.049Z,4.07
2022-08-03T18:51:49.723Z,2.93
2022-08-03T18:55:07.290Z,3.93
2022-08-03T18:58:15.730Z,2.90
2022-08-03T19:01:58.379Z,2.40
2022-08-03T19:04:33.515Z,2.70
2022-08-03T19:07:27.229Z,2.33
2022-08-03T19:10:19.048Z,3.07
2022-08-03T19:13:14.423Z,3.07
2022-08-03T19:16:05.221Z,2.80
2022-08-03T19:18:58.324Z,2.83
2022-08-03T19:21:50.356Z,2.80
2022-08-03T19:24:40.896Z,2.47
2022-08-03T19:27:32.521Z,2.30
2022-08-03T19:30:38.958Z,3.30
2022-08-03T19:33:29.783Z,3.23
2022-08-03T19:36:19.419Z,3.07
2022-08-03T19:39:15.956Z,3.50
2022-08-03T19:42:22.896Z,2.90
2022-08-03T19:45:18.220Z,3.30
2022-08-03T19:48:10.141Z,3.63
2022-08-03T19:50:59.905Z,4.10
2022-08-03T19:53:52.807Z,7.70
2022-08-03T19:56:48.037Z,6.07
2022-08-03T19:59:50.196Z,24.60
2022-08-03T20:02:40.918Z,11.20
2022-08-03T20:05:30.701Z,11.93
2022-08-03T20:08:34.434Z,6.57
2022-08-03T20:11:28.723Z,6.20
2022-08-03T20:14:20.554Z,7.23
2022-08-03T20:17:14.976Z,4.47
2022-08-03T20:20:11.185Z,4.20
2022-08-03T20:23:01.380Z,3.90
2022-08-03T20:25:57.363Z,4.70
2022-08-03T20:28:50.196Z,4.53
2022-08-03T20:31:39.170Z,4.50
2022-08-03T20:34:27.503Z,4.47
2022-08-03T20:37:17.297Z,4.53
2022-08-03T20:40:08.120Z,4.60
2022-08-03T20:42:56.436Z,5.50
2022-08-03T20:46:00.205Z,4.60
2022-08-03T20:48:55.237Z,4.77
2022-08-03T20:51:49.896Z,5.27
2022-08-03T20:54:43.750Z,4.83
2022-08-03T20:57:33.159Z,5.20
2022-08-03T21:00:22.022Z,5.20
2022-08-03T21:03:10.468Z,5.00
2022-08-03T21:06:07.231Z,4.73
2022-08-03T21:09:03.904Z,7.37
2022-08-03T21:11:56.527Z,5.30
2022-08-03T21:14:53.460Z,5.53
2022-08-03T21:17:46.997Z,4.77
2022-08-03T21:20:36.132Z,4.20
2022-08-03T21:23:40.095Z,6.47
2022-08-03T21:26:35.113Z,6.50
2022-08-03T21:29:24.764Z,7.30
2022-08-03T21:32:19.054Z,6.20
2022-08-03T21:35:22.575Z,6.87
2022-08-03T21:38:20.998Z,7.57
2022-08-03T21:41:19.097Z,7.57
2022-08-03T21:44:08.379Z,8.30
2022-08-03T21:46:59.084Z,8.40
2022-08-03T21:50:05.504Z,6.83
2022-08-03T21:52:57.715Z,8.10
2022-08-03T21:55:51.263Z,8.00
2022-08-03T21:58:51.046Z,10.17
2022-08-03T22:01:44.060Z,8.07
2022-08-03T22:04:58.369Z,8.97
2022-08-03T22:07:59.362Z,9.30
2022-08-03T22:10:59.140Z,8.73
2022-08-03T22:14:16.105Z,8.23
2022-08-03T22:17:12.315Z,6.57
2022-08-03T22:20:37.708Z,6.03
2022-08-03T22:23:46.349Z,5.97
2022-08-03T22:27:05.595Z,4.93
2022-08-03T22:30:06.660Z,5.33
2022-08-03T22:33:04.124Z,6.60
2022-08-03T22:36:17.266Z,8.30
2022-08-03T22:39:34.391Z,6.80
2022-08-03T22:42:47.447Z,5.80
2022-08-03T22:46:09.864Z,5.30
2022-08-03T22:49:11.588Z,4.90
2022-08-03T22:52:18.150Z,4.77
2022-08-03T22:55:18.828Z,5.33
2022-08-03T22:58:26.684Z,5.27
2022-08-03T23:01:28.121Z,5.50
2022-08-03T23:04:21.821Z,6.03
2022-08-03T23:07:15.121Z,5.00
2022-08-03T23:10:05.790Z,3.10
2022-08-03T23:12:55.357Z,3.87
2022-08-03T23:15:48.719Z,3.70
2022-08-03T23:18:40.859Z,3.40
2022-08-03T23:22:00.766Z,4.77
2022-08-03T23:24:40.898Z,3.90
2022-08-03T23:27:29.094Z,3.70
2022-08-03T23:30:17.702Z,3.20
2022-08-03T23:33:05.800Z,3.93
2022-08-03T23:36:28.419Z,4.10
2022-08-03T23:39:07.319Z,4.27
2022-08-03T23:41:58.093Z,4.57
2022-08-03T23:44:47.894Z,4.27
2022-08-03T23:47:46.967Z,3.97
2022-08-03T23:50:46.015Z,4.70
2022-08-03T23:53:41.927Z,4.80
2022-08-03T23:56:41.635Z,4.20
